Lokpriya Gopinath Bordoloi International Airport
VEGT : now visible

Airfield :











YOU CAN JOIN US ON...

 
LOGIN :

Register | Disclaimer

   EN    FR    IT 

 









Legend :    VFR   Marginal VFR   IFR   Intensive IFR   Very Intensive IFR
Visi :
Ceiling :
>= 8 km
>= 3000ft
5 to 8 km
1000 to 3000 ft
1500m to 5 km
500 to 1000 ft
800 to 1500m
200 to 500 ft
< 800m
< 200 ft
Symbols :   Thunderstorms  Fog  Heavy snow  Heavy precipitations  Wind > 20 kt






- Airport Elevation : 162 ft
- IATA code : GAU


VEGT - Lokpriya Gopinath Bordoloi International

CURRENT METAR :
  • 210830Z 03004KT 4000 HZ FEW020 28/20 Q1012 NOSIG

EXPIRED METARs :
  • 210800Z 07003KT 4000 HZ FEW020 28/21 Q1012 NOSIG
  • 210730Z 01006KT 4000 HZ FEW020 28/21 Q1013 NOSIG
  • 210700Z 03005KT 4000 HZ FEW020 27/22 Q1013 NOSIG
  • 210630Z 02007KT 3500 BR FEW020 27/22 Q1014 NOSIG
  • 210600Z 02006KT 3000 BR FEW020 27/23 Q1015 NOSIG

TAF TAF VEGT
Valid from the 21 at 09:00 until the 21 at 18:00 UTC


210800Z 2109/2118 02006KT 4000 HZ FEW020
BECMG 2111/2113 00000KT 3000 BR FEW018
BECMG 2115/2116 2000 BR FEW018 SCT100



MET'MAP, your aeronautical weather chart ! - Copyright ORBIFLY December 2007 - Disclaimer

ORBIFLY MET'MAP TEAM :

Programming & Development : Alexandra Zaïnal
Concept & Development : Baudouin d'Aumeries
Co-Development & Prog : Marc-Olivier Méhu
Technical & hardware support : Manuel Goepfert

Contact : metmap@orbifly.com




SOURCES & CREDITS :

   NOAA       Earth
Advisory